createdAt,value
2017-06-03T00:02:15.773Z,101447.87
2017-06-03T00:04:42.047Z,101447.44
2017-06-03T00:07:08.218Z,101443.44
2017-06-03T00:09:34.377Z,101442.58
2017-06-03T00:12:00.593Z,101438.53
2017-06-03T00:14:32.698Z,101427.74
2017-06-03T00:16:58.936Z,101434.92
2017-06-03T00:19:25.129Z,101434.48
2017-06-03T00:21:51.367Z,101434.11
2017-06-03T00:24:17.554Z,101434.11
2017-06-03T00:26:43.741Z,101434.11
2017-06-03T00:40:56.158Z,101430.61
2017-06-03T01:01:01.222Z,101411.77
2017-06-03T01:03:27.374Z,101413.50
2017-06-03T01:18:35.881Z,101397.85
2017-06-03T01:21:02.048Z,101392.94
2017-06-03T01:23:28.338Z,101388.90
2017-06-03T01:25:54.537Z,101387.55
2017-06-03T01:40:06.880Z,101402.39
2017-06-03T01:42:33.299Z,101408.70
2017-06-03T01:59:42.047Z,101389.44
2017-06-03T02:02:08.262Z,101388.58
2017-06-03T02:04:34.413Z,101385.45
2017-06-03T02:07:00.617Z,101385.50
2017-06-03T02:09:26.838Z,101378.27
2017-06-03T02:11:53.069Z,101383.23
2017-06-03T02:20:12.402Z,101376.12
2017-06-03T02:22:38.706Z,101383.84
2017-06-03T02:25:04.873Z,101388.37
2017-06-03T02:27:31.072Z,101388.75
2017-06-03T02:39:11.301Z,101373.05
2017-06-03T02:41:37.453Z,101372.61
2017-06-03T02:58:46.071Z,101351.46
2017-06-03T03:01:12.272Z,101346.93
2017-06-03T03:03:38.422Z,101341.59
2017-06-03T03:06:04.585Z,101337.97
2017-06-03T03:08:30.943Z,101342.45
2017-06-03T03:10:57.103Z,101345.20
2017-06-03T03:13:23.279Z,101340.67
2017-06-03T03:18:46.126Z,101337.22
2017-06-03T03:21:12.274Z,101345.64
2017-06-03T03:39:11.407Z,101326.92
2017-06-03T03:41:37.554Z,101327.84
2017-06-03T03:58:46.581Z,101337.28
2017-06-03T04:01:12.790Z,101336.42
2017-06-03T04:03:39.007Z,101345.43
2017-06-03T04:06:05.221Z,101349.47
2017-06-03T04:08:31.441Z,101342.00
2017-06-03T04:10:57.681Z,101340.05
2017-06-03T04:13:23.877Z,101339.63
2017-06-03T04:18:46.732Z,101351.33
2017-06-03T04:21:12.878Z,101350.42
2017-06-03T04:23:39.097Z,101348.75
2017-06-03T04:26:05.251Z,101345.94
2017-06-03T04:28:31.492Z,101336.98
2017-06-03T04:39:47.324Z,101333.74
2017-06-03T04:42:13.514Z,101336.42
2017-06-03T04:50:38.594Z,101339.98
2017-06-03T04:53:04.785Z,101344.94
2017-06-03T04:55:30.981Z,101340.03
2017-06-03T04:57:57.132Z,101336.84
2017-06-03T05:00:23.284Z,101340.84
2017-06-03T05:02:49.525Z,101339.12
2017-06-03T05:05:15.684Z,101335.45
2017-06-03T05:07:41.958Z,101343.53
2017-06-03T05:10:08.154Z,101336.42
2017-06-03T05:12:34.342Z,101343.00
2017-06-03T05:20:53.605Z,101344.83
2017-06-03T05:23:19.770Z,101348.82
2017-06-03T05:25:46.032Z,101351.20
2017-06-03T05:28:12.180Z,101356.97
2017-06-03T05:36:37.255Z,101369.37
2017-06-03T05:39:03.467Z,101369.91
2017-06-03T05:41:29.790Z,101369.86
2017-06-03T05:43:56.266Z,101371.70
2017-06-03T06:01:04.789Z,101354.83
2017-06-03T06:03:31.061Z,101351.70
2017-06-03T06:05:57.242Z,101354.50
2017-06-03T06:08:23.430Z,101359.06
2017-06-03T06:10:49.649Z,101356.91
2017-06-03T06:13:15.912Z,101362.95
2017-06-03T06:21:35.395Z,101362.77
2017-06-03T06:24:01.633Z,101358.34
2017-06-03T06:26:27.933Z,101361.26
2017-06-03T06:28:54.125Z,101363.90
2017-06-03T06:40:39.292Z,101348.38
2017-06-03T06:43:05.456Z,101345.73
2017-06-03T06:45:37.740Z,101345.89
2017-06-03T06:48:03.938Z,101345.78
2017-06-03T06:50:30.170Z,101354.66
2017-06-03T06:52:56.409Z,101349.91
2017-06-03T06:55:22.730Z,101353.41
2017-06-03T06:57:48.898Z,101348.66
2017-06-03T07:00:15.085Z,101351.84
2017-06-03T07:02:41.338Z,101356.21
2017-06-03T07:05:07.572Z,101361.16
2017-06-03T07:07:34.738Z,101358.63
2017-06-03T07:10:01.361Z,101362.78
2017-06-03T07:12:29.522Z,101359.78
2017-06-03T07:20:48.667Z,101364.14
2017-06-03T07:23:15.225Z,101367.21
2017-06-03T07:25:41.399Z,101366.56
2017-06-03T07:28:08.332Z,101373.36
2017-06-03T07:30:40.446Z,101372.05
2017-06-03T07:33:06.608Z,101363.41
2017-06-03T07:35:32.853Z,101370.34
2017-06-03T07:37:59.127Z,101380.48
2017-06-03T07:40:25.330Z,101378.64
2017-06-03T07:42:51.611Z,101366.08
2017-06-03T08:00:00.246Z,101369.08
2017-06-03T08:02:26.401Z,101368.96
2017-06-03T08:04:52.639Z,101372.35
2017-06-03T08:07:19.748Z,101369.13
2017-06-03T08:09:45.987Z,101368.09
2017-06-03T08:12:12.314Z,101370.62
2017-06-03T08:14:38.469Z,101368.35
2017-06-03T08:20:01.154Z,101361.38
2017-06-03T08:22:27.358Z,101358.08
2017-06-03T08:24:53.533Z,101359.75
2017-06-03T08:27:19.754Z,101356.94
2017-06-03T08:29:46.122Z,101353.80
2017-06-03T08:41:01.985Z,101352.17
2017-06-03T08:43:28.180Z,101350.59
2017-06-03T09:00:36.923Z,101364.47
2017-06-03T09:03:03.100Z,101363.98
2017-06-03T09:05:29.368Z,101367.48
2017-06-03T09:07:55.593Z,101360.36
2017-06-03T09:10:21.841Z,101357.89
2017-06-03T09:12:47.993Z,101345.68
2017-06-03T09:21:07.241Z,101350.61
2017-06-03T09:23:33.453Z,101347.17
2017-06-03T09:25:59.748Z,101353.12
2017-06-03T09:28:25.909Z,101353.98
2017-06-03T09:42:40.878Z,101360.84
2017-06-03T09:45:07.034Z,101365.16
2017-06-03T09:47:39.030Z,101359.78
2017-06-03T09:50:05.255Z,101363.73
2017-06-03T09:52:31.465Z,101361.22
2017-06-03T09:54:57.680Z,101363.50
2017-06-03T09:57:23.886Z,101362.34
2017-06-03T09:59:50.057Z,101361.95
2017-06-03T10:19:55.321Z,101378.64
2017-06-03T10:22:21.538Z,101379.39
2017-06-03T10:24:47.694Z,101383.45
2017-06-03T10:27:13.903Z,101369.94
2017-06-03T10:29:40.101Z,101370.73
2017-06-03T10:40:57.718Z,101373.95
2017-06-03T10:43:23.930Z,101375.41
2017-06-03T10:57:42.858Z,101362.42
2017-06-03T11:00:09.257Z,101357.61
2017-06-03T11:02:41.462Z,101363.30
2017-06-03T11:05:07.721Z,101362.39
2017-06-03T11:07:33.893Z,101363.41
2017-06-03T11:10:00.072Z,101364.05
2017-06-03T11:12:26.375Z,101358.08
2017-06-03T11:14:52.565Z,101353.64
2017-06-03T11:20:15.402Z,101340.11
2017-06-03T11:22:41.702Z,101340.59
2017-06-03T12:21:12.491Z,101318.86
2017-06-03T12:23:38.843Z,101327.97
2017-06-03T12:26:05.031Z,101322.83
2017-06-03T12:28:31.286Z,101321.19
2017-06-03T12:30:57.469Z,101317.22
2017-06-03T12:33:23.758Z,101317.52
2017-06-03T12:35:50.014Z,101319.09
2017-06-03T12:38:17.043Z,101315.41
2017-06-03T12:40:43.438Z,101324.02
2017-06-03T12:43:10.007Z,101320.34
2017-06-03T12:45:36.265Z,101314.11
2017-06-03T12:48:02.509Z,101317.36
2017-06-03T13:05:11.116Z,101346.39
2017-06-03T13:07:37.330Z,101339.86
2017-06-03T13:10:04.302Z,101333.11
2017-06-03T13:12:30.463Z,101331.02
2017-06-03T13:14:56.642Z,101328.08
2017-06-03T13:17:29.001Z,101326.35
2017-06-03T13:26:07.090Z,101345.04
2017-06-03T13:28:33.410Z,101333.89
2017-06-03T13:30:59.709Z,101325.00
2017-06-03T13:33:25.933Z,101315.95
2017-06-03T13:45:06.482Z,101333.52
2017-06-03T13:47:32.715Z,101328.36
2017-06-03T14:04:41.410Z,101340.17
2017-06-03T14:07:07.578Z,101336.33
2017-06-03T14:09:33.810Z,101348.88
2017-06-03T14:12:00.026Z,101344.27
2017-06-03T14:14:26.195Z,101345.89
2017-06-03T14:16:52.462Z,101347.80
2017-06-03T14:25:11.709Z,101353.80
2017-06-03T14:27:38.014Z,101364.12
2017-06-03T14:30:04.177Z,101360.38
2017-06-03T14:32:30.360Z,101364.91
2017-06-03T14:44:09.460Z,101367.92
2017-06-03T14:46:35.805Z,101360.81
2017-06-03T14:49:01.990Z,101368.73
2017-06-03T15:03:14.294Z,101362.72
2017-06-03T15:23:19.543Z,101361.99
2017-06-03T15:25:45.783Z,101359.11
2017-06-03T15:28:12.042Z,101357.99
2017-06-03T15:30:38.222Z,101360.38
2017-06-03T15:33:04.447Z,101367.20
2017-06-03T15:44:21.667Z,101356.53
2017-06-03T15:46:47.888Z,101353.95
2017-06-03T15:49:14.143Z,101348.29
2017-06-03T16:03:27.905Z,101322.70
2017-06-03T16:23:35.627Z,101316.21
2017-06-03T16:26:01.948Z,101319.88
2017-06-03T16:28:28.153Z,101320.23
2017-06-03T16:30:54.314Z,101332.58
2017-06-03T16:33:20.481Z,101337.34
2017-06-03T16:44:39.762Z,101324.50
2017-06-03T16:47:05.978Z,101333.83
2017-06-03T16:49:32.180Z,101330.42
2017-06-03T17:03:44.914Z,101328.17
2017-06-03T17:09:13.442Z,101324.16
2017-06-03T17:11:39.646Z,101326.08
2017-06-03T17:14:05.883Z,101329.41
2017-06-03T17:16:32.645Z,101333.36
2017-06-03T17:18:58.842Z,101335.45
2017-06-03T17:24:22.855Z,101339.27
2017-06-03T17:26:50.006Z,101337.81
2017-06-03T17:29:16.205Z,101342.60
2017-06-03T17:31:42.402Z,101335.86
2017-06-03T17:34:08.683Z,101333.70
2017-06-03T17:45:25.815Z,101328.61
2017-06-03T17:47:52.067Z,101322.95
2017-06-03T17:50:18.321Z,101320.17
2017-06-03T18:04:30.681Z,101326.68
2017-06-03T18:24:39.757Z,101342.50
2017-06-03T18:27:06.002Z,101346.41
2017-06-03T18:29:32.293Z,101343.07
2017-06-03T18:31:58.481Z,101344.03
2017-06-03T18:34:24.698Z,101343.08
2017-06-03T18:45:41.938Z,101361.45
2017-06-03T18:48:08.133Z,101359.23
2017-06-03T18:50:34.354Z,101360.12
2017-06-03T19:04:46.860Z,101360.23
2017-06-03T19:10:15.478Z,101358.05
2017-06-03T19:12:41.641Z,101359.13
2017-06-03T19:15:07.837Z,101356.27
2017-06-03T19:17:34.077Z,101357.08
2017-06-03T19:20:00.287Z,101357.34
2017-06-03T19:25:22.882Z,101355.66
2017-06-03T19:27:49.044Z,101365.48
2017-06-03T19:30:15.242Z,101371.24
2017-06-03T19:32:41.454Z,101368.91
2017-06-03T19:35:07.616Z,101365.72
2017-06-03T19:46:23.218Z,101375.26
2017-06-03T19:48:49.498Z,101380.11
2017-06-03T19:57:14.883Z,101380.38
2017-06-03T19:59:41.025Z,101393.75
2017-06-03T20:02:07.258Z,101386.20
2017-06-03T20:04:33.494Z,101393.27
2017-06-03T20:06:59.653Z,101393.59
2017-06-03T20:09:25.927Z,101393.59
2017-06-03T20:11:52.094Z,101395.80
2017-06-03T20:14:19.004Z,101394.39
2017-06-03T20:16:45.269Z,101392.23
2017-06-03T20:19:11.508Z,101392.08
2017-06-03T20:27:30.727Z,101389.27
2017-06-03T20:29:56.880Z,101388.34
2017-06-03T20:32:23.734Z,101387.43
2017-06-03T20:34:49.965Z,101391.96
2017-06-03T20:43:15.361Z,101406.63
2017-06-03T20:45:41.833Z,101404.34
2017-06-03T20:48:08.062Z,101403.86
2017-06-03T20:50:34.234Z,101402.94
2017-06-03T21:07:42.829Z,101412.59
2017-06-03T21:10:09.047Z,101407.63
2017-06-03T21:12:35.197Z,101405.41
2017-06-03T21:15:01.413Z,101411.67
2017-06-03T21:17:27.606Z,101410.76
2017-06-03T21:19:53.857Z,101406.71
2017-06-03T21:28:12.957Z,101405.80
2017-06-03T21:30:39.198Z,101405.30
2017-06-03T21:33:05.391Z,101405.30
2017-06-03T21:35:31.573Z,101403.09
2017-06-03T21:47:12.968Z,101404.50
2017-06-03T21:49:39.194Z,101405.41
2017-06-03T22:06:47.630Z,101424.78
2017-06-03T22:09:13.874Z,101423.87
2017-06-03T22:11:40.082Z,101425.27
2017-06-03T22:14:06.240Z,101429.20
2017-06-03T22:16:32.463Z,101430.61
2017-06-03T22:18:58.753Z,101423.87
2017-06-03T22:21:24.915Z,101413.94
2017-06-03T22:26:47.730Z,101411.35
2017-06-03T22:29:13.905Z,101414.91
2017-06-03T22:31:40.110Z,101404.61
2017-06-03T22:34:06.278Z,101400.51
2017-06-03T22:36:32.515Z,101394.30
2017-06-03T22:47:48.357Z,101397.48
2017-06-03T22:50:14.669Z,101398.84
2017-06-03T23:07:25.236Z,101403.56
2017-06-03T23:09:51.399Z,101404.91
2017-06-03T23:12:17.606Z,101407.13
2017-06-03T23:14:43.807Z,101408.52
2017-06-03T23:17:10.147Z,101412.08
2017-06-03T23:19:36.383Z,101408.95
2017-06-03T23:27:57.267Z,101418.08
2017-06-03T23:30:23.476Z,101422.12
2017-06-03T23:32:49.706Z,101415.86
2017-06-03T23:35:15.867Z,101420.39
2017-06-03T23:46:57.964Z,101431.13
2017-06-03T23:49:24.338Z,101427.57
2017-06-03T23:51:50.547Z,101423.58
2017-06-03T23:57:19.133Z,101423.03
2017-06-03T23:59:45.369Z,101411.88
